sensor_id;sensor_type;location;lat;lon;timestamp;temperature;humidity
45843;DHT22;31563;51.744;8.252;2023-11-22T00:01:25;16.70;71.90
45843;DHT22;31563;51.744;8.252;2023-11-22T00:03:53;16.70;72.00
45843;DHT22;31563;51.744;8.252;2023-11-22T00:06:21;16.60;72.00
45843;DHT22;31563;51.744;8.252;2023-11-22T00:08:49;16.60;72.00
45843;DHT22;31563;51.744;8.252;2023-11-22T00:11:18;16.60;72.00
45843;DHT22;31563;51.744;8.252;2023-11-22T00:13:46;16.60;72.10
45843;DHT22;31563;51.744;8.252;2023-11-22T00:16:15;16.60;72.00
45843;DHT22;31563;51.744;8.252;2023-11-22T00:18:43;16.60;71.90
45843;DHT22;31563;51.744;8.252;2023-11-22T00:21:12;16.60;71.90
45843;DHT22;31563;51.744;8.252;2023-11-22T00:23:40;16.60;71.80
45843;DHT22;31563;51.744;8.252;2023-11-22T00:26:08;16.60;71.80
45843;DHT22;31563;51.744;8.252;2023-11-22T00:28:39;16.60;71.80
45843;DHT22;31563;51.744;8.252;2023-11-22T00:31:07;16.50;71.80
45843;DHT22;31563;51.744;8.252;2023-11-22T00:33:34;16.50;71.80
45843;DHT22;31563;51.744;8.252;2023-11-22T00:36:03;16.50;71.80
45843;DHT22;31563;51.744;8.252;2023-11-22T00:38:34;16.50;71.80
45843;DHT22;31563;51.744;8.252;2023-11-22T00:41:04;16.50;72.30
45843;DHT22;31563;51.744;8.252;2023-11-22T00:43:32;16.50;71.70
45843;DHT22;31563;51.744;8.252;2023-11-22T00:46:01;16.40;71.70
45843;DHT22;31563;51.744;8.252;2023-11-22T00:48:29;16.40;71.60
45843;DHT22;31563;51.744;8.252;2023-11-22T00:50:57;16.40;71.60
45843;DHT22;31563;51.744;8.252;2023-11-22T00:53:25;16.40;71.70
45843;DHT22;31563;51.744;8.252;2023-11-22T00:55:53;16.40;71.70
45843;DHT22;31563;51.744;8.252;2023-11-22T00:58:22;16.40;72.30
45843;DHT22;31563;51.744;8.252;2023-11-22T01:00:50;16.30;71.50
45843;DHT22;31563;51.744;8.252;2023-11-22T01:03:19;16.30;71.70
45843;DHT22;31563;51.744;8.252;2023-11-22T01:05:47;16.30;71.50
45843;DHT22;31563;51.744;8.252;2023-11-22T01:08:15;16.20;71.50
45843;DHT22;31563;51.744;8.252;2023-11-22T01:10:43;16.20;71.50
45843;DHT22;31563;51.744;8.252;2023-11-22T01:13:12;16.20;71.40
45843;DHT22;31563;51.744;8.252;2023-11-22T01:15:41;16.20;71.70
45843;DHT22;31563;51.744;8.252;2023-11-22T01:18:11;16.20;71.60
45843;DHT22;31563;51.744;8.252;2023-11-22T01:20:40;16.20;71.50
45843;DHT22;31563;51.744;8.252;2023-11-22T01:23:08;16.20;71.50
45843;DHT22;31563;51.744;8.252;2023-11-22T01:25:36;16.10;71.40
45843;DHT22;31563;51.744;8.252;2023-11-22T01:28:04;16.10;71.50
45843;DHT22;31563;51.744;8.252;2023-11-22T01:30:33;16.10;71.40
45843;DHT22;31563;51.744;8.252;2023-11-22T01:33:01;16.10;71.40
45843;DHT22;31563;51.744;8.252;2023-11-22T01:35:29;16.10;71.40
45843;DHT22;31563;51.744;8.252;2023-11-22T01:37:58;16.10;71.40
45843;DHT22;31563;51.744;8.252;2023-11-22T01:40:26;16.10;71.40
45843;DHT22;31563;51.744;8.252;2023-11-22T01:42:54;16.00;71.30
45843;DHT22;31563;51.744;8.252;2023-11-22T01:45:22;16.00;71.30
45843;DHT22;31563;51.744;8.252;2023-11-22T01:47:50;16.00;71.20
45843;DHT22;31563;51.744;8.252;2023-11-22T01:50:18;16.00;71.20
45843;DHT22;31563;51.744;8.252;2023-11-22T01:52:47;16.00;71.20
45843;DHT22;31563;51.744;8.252;2023-11-22T01:55:17;15.90;71.30
45843;DHT22;31563;51.744;8.252;2023-11-22T01:57:45;15.90;71.30
45843;DHT22;31563;51.744;8.252;2023-11-22T02:00:13;15.90;71.20
45843;DHT22;31563;51.744;8.252;2023-11-22T02:02:43;15.90;71.20
45843;DHT22;31563;51.744;8.252;2023-11-22T02:05:11;15.90;71.20
45843;DHT22;31563;51.744;8.252;2023-11-22T02:07:39;15.90;71.10
45843;DHT22;31563;51.744;8.252;2023-11-22T02:10:08;15.90;71.00
45843;DHT22;31563;51.744;8.252;2023-11-22T02:12:37;15.90;71.00
45843;DHT22;31563;51.744;8.252;2023-11-22T02:15:06;15.90;71.00
45843;DHT22;31563;51.744;8.252;2023-11-22T02:17:34;15.80;70.90
45843;DHT22;31563;51.744;8.252;2023-11-22T02:20:03;15.80;70.90
45843;DHT22;31563;51.744;8.252;2023-11-22T02:22:33;15.90;70.90
45843;DHT22;31563;51.744;8.252;2023-11-22T02:25:02;15.80;70.80
45843;DHT22;31563;51.744;8.252;2023-11-22T02:27:31;15.80;70.80
45843;DHT22;31563;51.744;8.252;2023-11-22T02:29:59;15.70;70.80
45843;DHT22;31563;51.744;8.252;2023-11-22T02:32:27;15.70;70.80
45843;DHT22;31563;51.744;8.252;2023-11-22T02:34:55;15.70;70.90
45843;DHT22;31563;51.744;8.252;2023-11-22T02:37:23;15.60;70.90
45843;DHT22;31563;51.744;8.252;2023-11-22T02:40:04;15.70;71.00
45843;DHT22;31563;51.744;8.252;2023-11-22T02:42:33;15.70;70.90
45843;DHT22;31563;51.744;8.252;2023-11-22T02:45:01;15.70;70.80
45843;DHT22;31563;51.744;8.252;2023-11-22T02:47:29;15.60;70.70
45843;DHT22;31563;51.744;8.252;2023-11-22T02:49:57;15.70;70.80
45843;DHT22;31563;51.744;8.252;2023-11-22T02:52:25;15.70;70.70
45843;DHT22;31563;51.744;8.252;2023-11-22T02:54:53;15.60;70.70
45843;DHT22;31563;51.744;8.252;2023-11-22T02:57:22;15.60;70.70
45843;DHT22;31563;51.744;8.252;2023-11-22T02:59:50;15.60;71.30
45843;DHT22;31563;51.744;8.252;2023-11-22T03:02:19;15.60;70.70
45843;DHT22;31563;51.744;8.252;2023-11-22T03:04:47;15.50;70.70
45843;DHT22;31563;51.744;8.252;2023-11-22T03:07:15;15.50;70.60
45843;DHT22;31563;51.744;8.252;2023-11-22T03:09:42;15.50;70.60
45843;DHT22;31563;51.744;8.252;2023-11-22T03:12:13;15.50;70.50
45843;DHT22;31563;51.744;8.252;2023-11-22T03:14:42;15.50;70.50
45843;DHT22;31563;51.744;8.252;2023-11-22T03:17:11;15.50;70.50
45843;DHT22;31563;51.744;8.252;2023-11-22T03:19:40;15.50;70.40
45843;DHT22;31563;51.744;8.252;2023-11-22T03:22:08;15.50;70.40
45843;DHT22;31563;51.744;8.252;2023-11-22T03:24:35;15.50;70.40
45843;DHT22;31563;51.744;8.252;2023-11-22T03:27:04;15.40;70.20
45843;DHT22;31563;51.744;8.252;2023-11-22T03:29:33;15.40;70.20
45843;DHT22;31563;51.744;8.252;2023-11-22T03:32:03;15.40;70.30
45843;DHT22;31563;51.744;8.252;2023-11-22T03:34:31;15.40;70.30
45843;DHT22;31563;51.744;8.252;2023-11-22T03:36:59;15.30;70.40
45843;DHT22;31563;51.744;8.252;2023-11-22T03:39:27;15.30;70.40
45843;DHT22;31563;51.744;8.252;2023-11-22T03:41:55;15.30;70.40
45843;DHT22;31563;51.744;8.252;2023-11-22T03:44:23;15.40;70.30
45843;DHT22;31563;51.744;8.252;2023-11-22T03:46:53;15.30;70.20
45843;DHT22;31563;51.744;8.252;2023-11-22T03:49:22;15.30;70.20
45843;DHT22;31563;51.744;8.252;2023-11-22T03:51:50;15.30;70.10
45843;DHT22;31563;51.744;8.252;2023-11-22T03:54:18;15.30;70.00
45843;DHT22;31563;51.744;8.252;2023-11-22T03:56:46;15.30;70.10
45843;DHT22;31563;51.744;8.252;2023-11-22T03:59:14;15.30;70.20
45843;DHT22;31563;51.744;8.252;2023-11-22T04:01:42;15.30;70.10
45843;DHT22;31563;51.744;8.252;2023-11-22T04:04:10;15.30;70.10
45843;DHT22;31563;51.744;8.252;2023-11-22T04:06:39;15.20;70.10
45843;DHT22;31563;51.744;8.252;2023-11-22T04:09:07;15.20;69.90
45843;DHT22;31563;51.744;8.252;2023-11-22T04:11:36;15.20;69.90
45843;DHT22;31563;51.744;8.252;2023-11-22T04:14:04;15.20;69.90
45843;DHT22;31563;51.744;8.252;2023-11-22T04:16:32;15.20;70.00
45843;DHT22;31563;51.744;8.252;2023-11-22T04:19:00;15.20;70.00
45843;DHT22;31563;51.744;8.252;2023-11-22T04:21:29;15.10;69.90
45843;DHT22;31563;51.744;8.252;2023-11-22T04:23:58;15.20;70.00
45843;DHT22;31563;51.744;8.252;2023-11-22T04:26:26;15.10;69.80
45843;DHT22;31563;51.744;8.252;2023-11-22T04:28:54;15.10;69.90
45843;DHT22;31563;51.744;8.252;2023-11-22T04:31:22;15.10;70.00
45843;DHT22;31563;51.744;8.252;2023-11-22T04:33:50;15.10;69.20
45843;DHT22;31563;51.744;8.252;2023-11-22T04:36:18;15.10;68.00
45843;DHT22;31563;51.744;8.252;2023-11-22T04:38:49;15.00;70.50
45843;DHT22;31563;51.744;8.252;2023-11-22T04:41:18;15.00;70.10
45843;DHT22;31563;51.744;8.252;2023-11-22T04:43:46;15.00;70.20
45843;DHT22;31563;51.744;8.252;2023-11-22T04:46:14;14.90;70.00
45843;DHT22;31563;51.744;8.252;2023-11-22T04:48:43;14.90;70.20
45843;DHT22;31563;51.744;8.252;2023-11-22T04:51:11;14.90;70.30
45843;DHT22;31563;51.744;8.252;2023-11-22T04:53:39;14.90;70.30
45843;DHT22;31563;51.744;8.252;2023-11-22T04:56:09;14.90;70.30
45843;DHT22;31563;51.744;8.252;2023-11-22T04:58:37;14.90;70.40
45843;DHT22;31563;51.744;8.252;2023-11-22T05:01:05;14.90;70.20
45843;DHT22;31563;51.744;8.252;2023-11-22T05:03:35;14.90;70.20
45843;DHT22;31563;51.744;8.252;2023-11-22T05:06:04;15.00;70.00
45843;DHT22;31563;51.744;8.252;2023-11-22T05:08:32;15.00;69.90
45843;DHT22;31563;51.744;8.252;2023-11-22T05:11:01;15.10;69.70
45843;DHT22;31563;51.744;8.252;2023-11-22T05:13:29;15.10;70.10
45843;DHT22;31563;51.744;8.252;2023-11-22T05:15:58;15.10;69.40
45843;DHT22;31563;51.744;8.252;2023-11-22T05:18:27;15.10;69.40
45843;DHT22;31563;51.744;8.252;2023-11-22T05:20:55;15.10;69.30
45843;DHT22;31563;51.744;8.252;2023-11-22T05:23:23;15.20;69.20
45843;DHT22;31563;51.744;8.252;2023-11-22T05:25:51;15.20;69.10
45843;DHT22;31563;51.744;8.252;2023-11-22T05:28:19;15.20;69.50
45843;DHT22;31563;51.744;8.252;2023-11-22T05:30:47;15.00;59.40
45843;DHT22;31563;51.744;8.252;2023-11-22T05:33:16;14.90;60.10
45843;DHT22;31563;51.744;8.252;2023-11-22T05:35:45;14.80;63.10
45843;DHT22;31563;51.744;8.252;2023-11-22T05:38:13;14.90;62.90
45843;DHT22;31563;51.744;8.252;2023-11-22T05:40:41;14.90;62.90
45843;DHT22;31563;51.744;8.252;2023-11-22T05:43:09;15.00;63.10
45843;DHT22;31563;51.744;8.252;2023-11-22T05:45:39;15.00;63.10
45843;DHT22;31563;51.744;8.252;2023-11-22T05:48:07;15.10;63.00
45843;DHT22;31563;51.744;8.252;2023-11-22T05:50:36;15.10;63.00
45843;DHT22;31563;51.744;8.252;2023-11-22T05:53:04;15.10;63.00
45843;DHT22;31563;51.744;8.252;2023-11-22T05:55:32;15.10;63.10
45843;DHT22;31563;51.744;8.252;2023-11-22T05:58:00;15.10;63.20
45843;DHT22;31563;51.744;8.252;2023-11-22T06:00:28;15.20;63.20
45843;DHT22;31563;51.744;8.252;2023-11-22T06:02:56;15.20;63.10
45843;DHT22;31563;51.744;8.252;2023-11-22T06:05:24;15.30;63.10
45843;DHT22;31563;51.744;8.252;2023-11-22T06:07:53;15.30;63.20
45843;DHT22;31563;51.744;8.252;2023-11-22T06:10:21;15.30;63.10
45843;DHT22;31563;51.744;8.252;2023-11-22T06:12:50;15.30;60.00
45843;DHT22;31563;51.744;8.252;2023-11-22T06:15:18;15.30;61.70
45843;DHT22;31563;51.744;8.252;2023-11-22T06:17:47;15.30;62.10
45843;DHT22;31563;51.744;8.252;2023-11-22T06:20:16;15.30;62.20
45843;DHT22;31563;51.744;8.252;2023-11-22T06:22:44;15.30;62.30
45843;DHT22;31563;51.744;8.252;2023-11-22T06:25:14;15.30;62.40
45843;DHT22;31563;51.744;8.252;2023-11-22T06:27:42;15.30;62.50
45843;DHT22;31563;51.744;8.252;2023-11-22T06:30:10;15.30;62.50
45843;DHT22;31563;51.744;8.252;2023-11-22T06:32:38;15.40;62.90
45843;DHT22;31563;51.744;8.252;2023-11-22T06:35:09;15.40;62.60
45843;DHT22;31563;51.744;8.252;2023-11-22T06:37:38;15.40;62.60
45843;DHT22;31563;51.744;8.252;2023-11-22T06:40:06;15.40;62.50
45843;DHT22;31563;51.744;8.252;2023-11-22T06:42:37;15.40;62.60
45843;DHT22;31563;51.744;8.252;2023-11-22T06:45:06;15.40;62.60
45843;DHT22;31563;51.744;8.252;2023-11-22T06:47:36;15.40;62.60
45843;DHT22;31563;51.744;8.252;2023-11-22T06:50:05;15.40;62.30
45843;DHT22;31563;51.744;8.252;2023-11-22T06:52:36;15.40;62.50
45843;DHT22;31563;51.744;8.252;2023-11-22T06:55:05;15.40;62.40
45843;DHT22;31563;51.744;8.252;2023-11-22T06:57:34;15.50;62.10
45843;DHT22;31563;51.744;8.252;2023-11-22T07:00:05;15.50;62.50
45843;DHT22;31563;51.744;8.252;2023-11-22T07:02:36;15.50;62.40
45843;DHT22;31563;51.744;8.252;2023-11-22T07:05:05;15.50;62.40
45843;DHT22;31563;51.744;8.252;2023-11-22T07:07:35;15.60;62.40
45843;DHT22;31563;51.744;8.252;2023-11-22T07:10:03;15.60;62.30
45843;DHT22;31563;51.744;8.252;2023-11-22T07:12:32;15.60;62.30
45843;DHT22;31563;51.744;8.252;2023-11-22T07:15:01;15.70;62.30
45843;DHT22;31563;51.744;8.252;2023-11-22T07:17:31;15.70;62.30
45843;DHT22;31563;51.744;8.252;2023-11-22T07:20:00;15.70;62.20
45843;DHT22;31563;51.744;8.252;2023-11-22T07:22:29;15.80;62.30
45843;DHT22;31563;51.744;8.252;2023-11-22T07:24:57;15.70;62.20
45843;DHT22;31563;51.744;8.252;2023-11-22T07:27:28;15.80;62.10
45843;DHT22;31563;51.744;8.252;2023-11-22T07:29:56;15.80;62.10
45843;DHT22;31563;51.744;8.252;2023-11-22T07:32:24;15.80;62.10
45843;DHT22;31563;51.744;8.252;2023-11-22T07:34:53;15.90;62.00
45843;DHT22;31563;51.744;8.252;2023-11-22T07:37:22;15.90;62.00
45843;DHT22;31563;51.744;8.252;2023-11-22T07:39:50;16.00;61.90
45843;DHT22;31563;51.744;8.252;2023-11-22T07:42:18;16.00;61.80
45843;DHT22;31563;51.744;8.252;2023-11-22T07:44:46;16.10;61.70
45843;DHT22;31563;51.744;8.252;2023-11-22T07:47:14;16.10;61.40
45843;DHT22;31563;51.744;8.252;2023-11-22T07:49:42;16.20;61.50
45843;DHT22;31563;51.744;8.252;2023-11-22T07:52:12;16.20;61.50
45843;DHT22;31563;51.744;8.252;2023-11-22T07:54:41;16.30;61.20
45843;DHT22;31563;51.744;8.252;2023-11-22T07:57:09;16.40;60.90
45843;DHT22;31563;51.744;8.252;2023-11-22T07:59:37;16.50;60.70
45843;DHT22;31563;51.744;8.252;2023-11-22T08:02:06;16.60;60.40
45843;DHT22;31563;51.744;8.252;2023-11-22T08:04:37;16.60;60.40
45843;DHT22;31563;51.744;8.252;2023-11-22T08:07:07;16.50;60.60
45843;DHT22;31563;51.744;8.252;2023-11-22T08:09:36;16.60;60.60
45843;DHT22;31563;51.744;8.252;2023-11-22T08:12:05;16.70;60.50
45843;DHT22;31563;51.744;8.252;2023-11-22T08:14:33;16.90;60.40
45843;DHT22;31563;51.744;8.252;2023-11-22T08:17:01;17.00;60.00
45843;DHT22;31563;51.744;8.252;2023-11-22T08:19:30;17.10;59.60
45843;DHT22;31563;51.744;8.252;2023-11-22T08:21:58;17.20;59.50
45843;DHT22;31563;51.744;8.252;2023-11-22T08:24:26;17.30;59.40
45843;DHT22;31563;51.744;8.252;2023-11-22T08:26:55;17.40;58.90
45843;DHT22;31563;51.744;8.252;2023-11-22T08:29:25;17.50;65.60
45843;DHT22;31563;51.744;8.252;2023-11-22T08:31:53;17.60;61.10
45843;DHT22;31563;51.744;8.252;2023-11-22T08:34:21;17.70;62.20
45843;DHT22;31563;51.744;8.252;2023-11-22T08:36:49;17.80;62.00
45843;DHT22;31563;51.744;8.252;2023-11-22T08:39:17;17.80;61.80
45843;DHT22;31563;51.744;8.252;2023-11-22T08:41:45;17.90;61.90
45843;DHT22;31563;51.744;8.252;2023-11-22T08:44:15;18.00;62.20
45843;DHT22;31563;51.744;8.252;2023-11-22T08:46:43;18.20;61.30
45843;DHT22;31563;51.744;8.252;2023-11-22T08:49:13;18.20;61.30
45843;DHT22;31563;51.744;8.252;2023-11-22T08:51:42;18.30;61.10
45843;DHT22;31563;51.744;8.252;2023-11-22T08:54:11;18.40;60.80
45843;DHT22;31563;51.744;8.252;2023-11-22T08:56:39;18.50;60.60
45843;DHT22;31563;51.744;8.252;2023-11-22T08:59:09;18.60;60.20
45843;DHT22;31563;51.744;8.252;2023-11-22T09:01:38;18.70;59.90
45843;DHT22;31563;51.744;8.252;2023-11-22T09:04:07;18.90;59.50
45843;DHT22;31563;51.744;8.252;2023-11-22T09:06:35;19.00;59.00
45843;DHT22;31563;51.744;8.252;2023-11-22T09:09:03;19.10;58.70
45843;DHT22;31563;51.744;8.252;2023-11-22T09:11:32;19.20;58.50
45843;DHT22;31563;51.744;8.252;2023-11-22T09:14:01;19.30;58.10
45843;DHT22;31563;51.744;8.252;2023-11-22T09:16:35;19.50;57.80
45843;DHT22;31563;51.744;8.252;2023-11-22T09:19:04;19.70;57.70
45843;DHT22;31563;51.744;8.252;2023-11-22T09:21:33;20.00;57.50
45843;DHT22;31563;51.744;8.252;2023-11-22T09:24:01;20.20;56.30
45843;DHT22;31563;51.744;8.252;2023-11-22T09:26:32;20.30;55.70
45843;DHT22;31563;51.744;8.252;2023-11-22T09:29:01;20.40;56.00
45843;DHT22;31563;51.744;8.252;2023-11-22T09:31:30;20.50;55.20
45843;DHT22;31563;51.744;8.252;2023-11-22T09:33:58;20.40;55.10
45843;DHT22;31563;51.744;8.252;2023-11-22T09:36:27;20.30;55.30
45843;DHT22;31563;51.744;8.252;2023-11-22T09:38:56;20.30;55.60
45843;DHT22;31563;51.744;8.252;2023-11-22T09:41:24;20.20;55.70
45843;DHT22;31563;51.744;8.252;2023-11-22T09:43:53;20.30;55.70
45843;DHT22;31563;51.744;8.252;2023-11-22T09:46:22;20.40;55.60
45843;DHT22;31563;51.744;8.252;2023-11-22T09:48:51;20.40;55.50
45843;DHT22;31563;51.744;8.252;2023-11-22T09:51:23;20.50;51.70
45843;DHT22;31563;51.744;8.252;2023-11-22T09:53:56;20.40;54.50
45843;DHT22;31563;51.744;8.252;2023-11-22T09:56:26;20.40;54.20
45843;DHT22;31563;51.744;8.252;2023-11-22T09:58:55;20.30;53.90
45843;DHT22;31563;51.744;8.252;2023-11-22T10:01:27;20.30;50.30
45843;DHT22;31563;51.744;8.252;2023-11-22T10:03:58;20.20;52.70
45843;DHT22;31563;51.744;8.252;2023-11-22T10:06:26;20.10;52.60
45843;DHT22;31563;51.744;8.252;2023-11-22T10:09:01;20.20;52.90
45843;DHT22;31563;51.744;8.252;2023-11-22T10:11:32;20.30;54.10
45843;DHT22;31563;51.744;8.252;2023-11-22T10:14:02;20.40;55.30
45843;DHT22;31563;51.744;8.252;2023-11-22T10:16:31;20.70;56.20
45843;DHT22;31563;51.744;8.252;2023-11-22T10:18:59;20.80;57.90
45843;DHT22;31563;51.744;8.252;2023-11-22T10:21:28;21.00;57.80
45843;DHT22;31563;51.744;8.252;2023-11-22T10:24:02;21.00;58.10
45843;DHT22;31563;51.744;8.252;2023-11-22T10:26:31;20.90;58.50
45843;DHT22;31563;51.744;8.252;2023-11-22T10:28:59;21.00;58.60
45843;DHT22;31563;51.744;8.252;2023-11-22T10:31:28;21.00;58.70
45843;DHT22;31563;51.744;8.252;2023-11-22T10:33:57;21.00;58.60
45843;DHT22;31563;51.744;8.252;2023-11-22T10:36:25;21.10;58.40
45843;DHT22;31563;51.744;8.252;2023-11-22T10:38:54;21.20;58.20
45843;DHT22;31563;51.744;8.252;2023-11-22T10:41:23;21.20;58.00
45843;DHT22;31563;51.744;8.252;2023-11-22T10:43:52;21.10;58.00
45843;DHT22;31563;51.744;8.252;2023-11-22T10:46:26;21.10;58.20
45843;DHT22;31563;51.744;8.252;2023-11-22T10:48:55;21.10;58.10
45843;DHT22;31563;51.744;8.252;2023-11-22T10:51:27;21.20;57.90
45843;DHT22;31563;51.744;8.252;2023-11-22T10:53:58;21.40;57.60
45843;DHT22;31563;51.744;8.252;2023-11-22T10:56:32;21.50;57.20
45843;DHT22;31563;51.744;8.252;2023-11-22T10:59:08;21.60;51.00
45843;DHT22;31563;51.744;8.252;2023-11-22T11:01:38;21.60;51.00
45843;DHT22;31563;51.744;8.252;2023-11-22T11:04:09;21.60;52.00
45843;DHT22;31563;51.744;8.252;2023-11-22T11:06:38;21.50;52.10
45843;DHT22;31563;51.744;8.252;2023-11-22T11:09:07;21.50;52.40
45843;DHT22;31563;51.744;8.252;2023-11-22T11:11:37;21.50;52.50
45843;DHT22;31563;51.744;8.252;2023-11-22T11:14:08;21.40;52.60
45843;DHT22;31563;51.744;8.252;2023-11-22T11:16:39;21.50;52.80
45843;DHT22;31563;51.744;8.252;2023-11-22T11:19:14;21.50;52.90
45843;DHT22;31563;51.744;8.252;2023-11-22T11:21:44;21.40;53.00
45843;DHT22;31563;51.744;8.252;2023-11-22T11:24:12;21.50;53.20
45843;DHT22;31563;51.744;8.252;2023-11-22T11:26:47;21.50;53.30
45843;DHT22;31563;51.744;8.252;2023-11-22T11:29:31;21.50;53.40
45843;DHT22;31563;51.744;8.252;2023-11-22T11:32:00;21.50;53.40
45843;DHT22;31563;51.744;8.252;2023-11-22T11:34:30;21.70;53.40
45843;DHT22;31563;51.744;8.252;2023-11-22T11:36:59;21.90;53.00
45843;DHT22;31563;51.744;8.252;2023-11-22T11:39:27;22.20;52.50
45843;DHT22;31563;51.744;8.252;2023-11-22T11:42:08;22.60;51.30
45843;DHT22;31563;51.744;8.252;2023-11-22T11:44:52;22.80;52.10
45843;DHT22;31563;51.744;8.252;2023-11-22T11:47:30;23.10;52.40
45843;DHT22;31563;51.744;8.252;2023-11-22T11:49:58;23.10;52.10
45843;DHT22;31563;51.744;8.252;2023-11-22T11:52:26;23.10;52.50
45843;DHT22;31563;51.744;8.252;2023-11-22T11:54:55;23.00;46.90
45843;DHT22;31563;51.744;8.252;2023-11-22T11:57:30;23.00;45.40
45843;DHT22;31563;51.744;8.252;2023-11-22T11:59:58;22.80;47.10
45843;DHT22;31563;51.744;8.252;2023-11-22T12:02:27;22.80;47.40
45843;DHT22;31563;51.744;8.252;2023-11-22T12:04:55;23.10;47.60
45843;DHT22;31563;51.744;8.252;2023-11-22T12:07:23;23.30;47.10
45843;DHT22;31563;51.744;8.252;2023-11-22T12:09:51;23.50;46.50
45843;DHT22;31563;51.744;8.252;2023-11-22T12:12:19;23.70;46.80
45843;DHT22;31563;51.744;8.252;2023-11-22T12:14:48;23.90;47.10
45843;DHT22;31563;51.744;8.252;2023-11-22T12:17:17;24.10;47.10
45843;DHT22;31563;51.744;8.252;2023-11-22T12:19:45;24.20;46.80
45843;DHT22;31563;51.744;8.252;2023-11-22T12:22:15;24.30;46.70
45843;DHT22;31563;51.744;8.252;2023-11-22T12:24:43;24.30;47.20
45843;DHT22;31563;51.744;8.252;2023-11-22T12:27:11;24.30;47.70
45843;DHT22;31563;51.744;8.252;2023-11-22T12:29:39;24.00;48.20
45843;DHT22;31563;51.744;8.252;2023-11-22T12:32:11;23.80;48.80
45843;DHT22;31563;51.744;8.252;2023-11-22T12:34:39;23.70;49.50
45843;DHT22;31563;51.744;8.252;2023-11-22T12:37:07;23.70;49.90
45843;DHT22;31563;51.744;8.252;2023-11-22T12:39:36;23.80;49.90
45843;DHT22;31563;51.744;8.252;2023-11-22T12:42:04;23.90;49.70
45843;DHT22;31563;51.744;8.252;2023-11-22T12:44:47;24.00;49.40
45843;DHT22;31563;51.744;8.252;2023-11-22T12:47:30;24.20;49.00
45843;DHT22;31563;51.744;8.252;2023-11-22T12:49:59;24.40;47.90
45843;DHT22;31563;51.744;8.252;2023-11-22T12:52:27;24.40;48.70
45843;DHT22;31563;51.744;8.252;2023-11-22T12:54:55;24.70;48.30
45843;DHT22;31563;51.744;8.252;2023-11-22T12:57:23;25.10;48.00
45843;DHT22;31563;51.744;8.252;2023-11-22T12:59:51;25.50;47.50
45843;DHT22;31563;51.744;8.252;2023-11-22T13:02:20;25.70;46.90
45843;DHT22;31563;51.744;8.252;2023-11-22T13:04:48;25.70;47.30
45843;DHT22;31563;51.744;8.252;2023-11-22T13:07:17;25.60;46.70
45843;DHT22;31563;51.744;8.252;2023-11-22T13:09:46;25.60;47.10
45843;DHT22;31563;51.744;8.252;2023-11-22T13:12:14;25.70;46.90
45843;DHT22;31563;51.744;8.252;2023-11-22T13:14:44;25.50;47.10
45843;DHT22;31563;51.744;8.252;2023-11-22T13:17:13;25.40;47.10
45843;DHT22;31563;51.744;8.252;2023-11-22T13:19:43;25.20;47.50
45843;DHT22;31563;51.744;8.252;2023-11-22T13:22:14;25.00;47.80
45843;DHT22;31563;51.744;8.252;2023-11-22T13:24:42;25.00;48.20
45843;DHT22;31563;51.744;8.252;2023-11-22T13:27:10;25.00;48.50
45843;DHT22;31563;51.744;8.252;2023-11-22T13:29:38;25.20;47.90
45843;DHT22;31563;51.744;8.252;2023-11-22T13:32:06;25.10;40.50
45843;DHT22;31563;51.744;8.252;2023-11-22T13:34:34;25.10;43.10
45843;DHT22;31563;51.744;8.252;2023-11-22T13:37:04;25.20;41.90
45843;DHT22;31563;51.744;8.252;2023-11-22T13:39:32;25.10;42.40
45843;DHT22;31563;51.744;8.252;2023-11-22T13:42:00;24.90;42.60
45843;DHT22;31563;51.744;8.252;2023-11-22T13:44:28;24.70;43.10
45843;DHT22;31563;51.744;8.252;2023-11-22T13:46:56;24.40;43.60
45843;DHT22;31563;51.744;8.252;2023-11-22T13:49:24;24.30;44.10
45843;DHT22;31563;51.744;8.252;2023-11-22T13:51:52;24.10;44.10
45843;DHT22;31563;51.744;8.252;2023-11-22T13:54:21;24.10;44.70
45843;DHT22;31563;51.744;8.252;2023-11-22T13:56:49;24.10;45.10
45843;DHT22;31563;51.744;8.252;2023-11-22T13:59:18;24.00;45.00
45843;DHT22;31563;51.744;8.252;2023-11-22T14:01:46;23.90;45.10
45843;DHT22;31563;51.744;8.252;2023-11-22T14:04:17;23.80;45.20
45843;DHT22;31563;51.744;8.252;2023-11-22T14:06:46;23.60;45.80
45843;DHT22;31563;51.744;8.252;2023-11-22T14:09:13;23.50;46.20
45843;DHT22;31563;51.744;8.252;2023-11-22T14:11:44;23.40;46.40
45843;DHT22;31563;51.744;8.252;2023-11-22T14:14:12;23.30;46.80
45843;DHT22;31563;51.744;8.252;2023-11-22T14:16:43;23.20;46.80
45843;DHT22;31563;51.744;8.252;2023-11-22T14:19:12;23.10;47.10
45843;DHT22;31563;51.744;8.252;2023-11-22T14:21:40;23.10;47.30
45843;DHT22;31563;51.744;8.252;2023-11-22T14:24:09;22.90;47.50
45843;DHT22;31563;51.744;8.252;2023-11-22T14:26:37;22.80;47.80
45843;DHT22;31563;51.744;8.252;2023-11-22T14:29:06;22.60;47.90
45843;DHT22;31563;51.744;8.252;2023-11-22T14:31:34;22.50;48.30
45843;DHT22;31563;51.744;8.252;2023-11-22T14:34:02;22.40;48.70
45843;DHT22;31563;51.744;8.252;2023-11-22T14:36:32;22.30;48.80
45843;DHT22;31563;51.744;8.252;2023-11-22T14:38:59;22.10;48.90
45843;DHT22;31563;51.744;8.252;2023-11-22T14:41:27;22.00;49.30
45843;DHT22;31563;51.744;8.252;2023-11-22T14:43:56;21.90;49.60
45843;DHT22;31563;51.744;8.252;2023-11-22T14:46:25;21.80;49.80
45843;DHT22;31563;51.744;8.252;2023-11-22T14:48:53;21.70;50.00
45843;DHT22;31563;51.744;8.252;2023-11-22T14:51:21;21.60;50.10
45843;DHT22;31563;51.744;8.252;2023-11-22T14:53:50;21.50;50.40
45843;DHT22;31563;51.744;8.252;2023-11-22T14:56:18;21.40;50.30
45843;DHT22;31563;51.744;8.252;2023-11-22T14:58:47;21.30;50.50
45843;DHT22;31563;51.744;8.252;2023-11-22T15:01:20;21.20;50.50
45843;DHT22;31563;51.744;8.252;2023-11-22T15:03:51;21.20;49.40
45843;DHT22;31563;51.744;8.252;2023-11-22T15:06:20;21.10;50.60
45843;DHT22;31563;51.744;8.252;2023-11-22T15:08:48;21.10;50.40
45843;DHT22;31563;51.744;8.252;2023-11-22T15:11:17;21.00;50.40
45843;DHT22;31563;51.744;8.252;2023-11-22T15:13:45;20.90;49.60
45843;DHT22;31563;51.744;8.252;2023-11-22T15:16:13;20.90;48.40
45843;DHT22;31563;51.744;8.252;2023-11-22T15:18:42;20.80;51.00
45843;DHT22;31563;51.744;8.252;2023-11-22T15:21:12;20.80;45.40
45843;DHT22;31563;51.744;8.252;2023-11-22T15:23:40;20.60;47.30
45843;DHT22;31563;51.744;8.252;2023-11-22T15:26:08;20.60;48.70
45843;DHT22;31563;51.744;8.252;2023-11-22T15:28:36;20.50;49.20
45843;DHT22;31563;51.744;8.252;2023-11-22T15:31:04;20.50;49.30
45843;DHT22;31563;51.744;8.252;2023-11-22T15:33:32;20.40;49.50
45843;DHT22;31563;51.744;8.252;2023-11-22T15:36:01;20.40;49.70
45843;DHT22;31563;51.744;8.252;2023-11-22T15:38:30;20.40;49.90
45843;DHT22;31563;51.744;8.252;2023-11-22T15:40:58;20.40;49.90